Time;durP1;ratioP1;P1;durP2;ratioP2;P2;SDS_P1;SDS_P2;PMS_P1;PMS_P2;Temp;Humidity;BMP_temperature;BMP_pressure;BME280_temperature;BME280_humidity;BME280_pressure;Samples;Min_cycle;Max_cycle;Signal;HPM_P1;HPM_P2
2023/11/23 00:02:18;;;;;;;35.47;31.98;;;9.00;99.90;;;;;;4986410;28;20495;-73
2023/11/23 00:04:44;;;;;;;33.85;30.63;;;9.10;99.90;;;;;;4991068;28;20391;-73
2023/11/23 00:07:11;;;;;;;32.55;29.23;;;9.10;99.90;;;;;;4986761;28;20058;-73
2023/11/23 00:09:37;;;;;;;33.08;29.55;;;9.10;99.90;;;;;;4986655;28;20030;-73
2023/11/23 00:12:03;;;;;;;35.30;32.03;;;9.20;99.90;;;;;;4982908;28;20049;-73
2023/11/23 00:14:32;;;;;;;36.00;32.80;;;9.30;99.90;;;;;;4998154;28;20035;-73
2023/11/23 00:16:58;;;;;;;34.05;30.88;;;9.30;99.90;;;;;;4989957;28;20043;-73
2023/11/23 00:19:24;;;;;;;35.47;31.95;;;9.40;99.90;;;;;;4985237;28;20042;-73
2023/11/23 00:21:50;;;;;;;40.28;36.80;;;9.40;99.90;;;;;;4991624;28;20506;-73
2023/11/23 00:24:17;;;;;;;39.72;36.42;;;9.40;99.90;;;;;;4989772;28;20037;-73
2023/11/23 00:26:46;;;;;;;39.78;36.47;;;9.40;99.90;;;;;;4993234;28;20490;-73
2023/11/23 00:29:12;;;;;;;38.33;34.50;;;9.50;99.90;;;;;;5015838;28;20040;-73
2023/11/23 00:31:38;;;;;;;34.50;31.63;;;9.40;99.90;;;;;;5001958;28;20446;-74
2023/11/23 00:34:05;;;;;;;33.88;31.08;;;9.40;99.90;;;;;;5001630;28;20038;-73
2023/11/23 00:36:32;;;;;;;32.92;30.23;;;9.40;99.90;;;;;;4995024;28;20022;-73
2023/11/23 00:38:58;;;;;;;32.60;29.65;;;9.50;99.90;;;;;;5009761;28;20038;-73
2023/11/23 00:41:24;;;;;;;32.15;29.40;;;9.50;99.90;;;;;;4994127;28;20037;-73
2023/11/23 00:43:50;;;;;;;31.63;28.73;;;9.50;99.90;;;;;;4993877;28;20495;-73
2023/11/23 00:46:16;;;;;;;34.95;32.08;;;9.50;99.90;;;;;;5003915;28;20510;-73
2023/11/23 00:48:42;;;;;;;33.45;30.60;;;9.50;99.90;;;;;;4996155;28;20030;-73
2023/11/23 00:51:09;;;;;;;34.13;31.20;;;9.50;99.90;;;;;;4995761;28;20507;-73
2023/11/23 00:53:37;;;;;;;33.47;30.42;;;9.60;99.90;;;;;;4993507;28;20038;-73
2023/11/23 00:56:04;;;;;;;34.20;31.13;;;9.60;99.90;;;;;;4994586;28;20026;-74
2023/11/23 00:58:30;;;;;;;33.15;30.17;;;9.60;99.90;;;;;;4995828;28;20038;-73
2023/11/23 01:00:57;;;;;;;31.88;29.13;;;9.60;99.90;;;;;;4993106;28;20038;-73
2023/11/23 01:03:24;;;;;;;34.38;31.23;;;9.60;99.90;;;;;;5000604;28;20042;-73
2023/11/23 01:05:50;;;;;;;34.53;31.23;;;9.60;99.90;;;;;;5009471;28;20030;-73
2023/11/23 01:08:16;;;;;;;34.05;31.15;;;9.60;99.90;;;;;;4990181;28;20046;-73
2023/11/23 01:10:43;;;;;;;32.13;29.08;;;9.60;99.90;;;;;;5001083;28;20061;-73
2023/11/23 01:13:10;;;;;;;33.28;30.17;;;9.60;99.90;;;;;;4993745;28;20045;-73
2023/11/23 01:15:36;;;;;;;29.77;27.13;;;9.70;99.90;;;;;;4992129;28;20039;-74
2023/11/23 01:18:02;;;;;;;29.45;26.90;;;9.60;99.90;;;;;;4993746;28;20460;-73
2023/11/23 01:20:29;;;;;;;29.05;26.45;;;9.60;99.90;;;;;;4993939;28;20038;-73
2023/11/23 01:22:55;;;;;;;29.30;26.75;;;9.70;99.90;;;;;;4993969;28;20034;-74
2023/11/23 01:25:21;;;;;;;31.25;28.23;;;9.70;99.90;;;;;;4981772;28;20376;-74
2023/11/23 01:27:47;;;;;;;28.65;26.02;;;9.70;99.90;;;;;;4994800;28;20030;-73
2023/11/23 01:30:13;;;;;;;33.55;30.67;;;9.60;99.90;;;;;;4993894;28;20022;-73
2023/11/23 01:32:39;;;;;;;35.88;32.85;;;9.70;99.90;;;;;;4985175;28;20061;-74
2023/11/23 01:35:07;;;;;;;33.20;30.42;;;9.70;99.90;;;;;;5002692;28;20026;-74
2023/11/23 01:37:35;;;;;;;35.20;32.13;;;9.70;99.90;;;;;;4997859;28;20022;-74
2023/11/23 01:40:03;;;;;;;33.78;30.73;;;9.70;99.90;;;;;;4985974;28;20101;-73
2023/11/23 01:42:30;;;;;;;35.10;31.90;;;9.70;99.90;;;;;;4991429;28;20502;-73
2023/11/23 01:44:56;;;;;;;35.70;32.60;;;9.70;99.90;;;;;;4988739;28;20034;-73
2023/11/23 01:47:22;;;;;;;33.70;30.60;;;9.80;99.90;;;;;;4991782;28;20038;-74
2023/11/23 01:49:48;;;;;;;33.22;29.88;;;9.80;99.90;;;;;;4992457;28;20041;-73
2023/11/23 01:52:14;;;;;;;33.50;30.80;;;9.90;99.90;;;;;;4985512;28;20050;-73
2023/11/23 01:54:40;;;;;;;33.83;30.92;;;9.90;99.90;;;;;;4974645;28;20042;-73
2023/11/23 01:57:06;;;;;;;31.48;28.77;;;9.90;99.90;;;;;;5019058;28;20482;-73
2023/11/23 01:59:32;;;;;;;31.88;28.98;;;9.90;99.90;;;;;;4997212;28;20096;-73
2023/11/23 02:01:58;;;;;;;31.17;28.70;;;9.60;99.90;;;;;;4990322;28;20034;-74
2023/11/23 02:04:24;;;;;;;31.92;29.27;;;9.70;99.90;;;;;;4983802;28;20034;-73
2023/11/23 02:06:51;;;;;;;32.97;30.20;;;9.70;99.90;;;;;;4993213;28;20038;-73
2023/11/23 02:09:17;;;;;;;32.78;29.83;;;9.80;99.90;;;;;;4994036;28;20047;-74
2023/11/23 02:11:43;;;;;;;30.38;27.58;;;9.90;99.90;;;;;;4998035;28;20049;-73
2023/11/23 02:14:09;;;;;;;29.73;26.92;;;9.90;99.90;;;;;;4985812;28;20037;-73
2023/11/23 02:16:37;;;;;;;27.85;25.25;;;10.00;99.90;;;;;;4988045;28;20038;-74
2023/11/23 02:19:04;;;;;;;28.75;26.10;;;10.00;99.90;;;;;;4991923;28;20035;-72
2023/11/23 02:21:30;;;;;;;29.55;26.85;;;10.00;99.90;;;;;;4989021;28;20050;-74
2023/11/23 02:23:56;;;;;;;29.40;26.60;;;10.00;99.90;;;;;;4990636;28;20056;-73
2023/11/23 02:26:22;;;;;;;28.20;25.75;;;10.00;99.90;;;;;;4993152;28;20042;-73
2023/11/23 02:28:48;;;;;;;31.10;28.58;;;10.00;99.90;;;;;;4993235;28;20042;-73
2023/11/23 02:31:15;;;;;;;31.02;28.27;;;10.00;99.90;;;;;;4993083;28;20038;-74
2023/11/23 02:33:41;;;;;;;32.55;29.48;;;10.00;99.90;;;;;;4979061;28;20376;-74
2023/11/23 02:36:07;;;;;;;29.38;26.77;;;10.00;99.90;;;;;;4991833;28;20041;-73
2023/11/23 02:38:33;;;;;;;30.85;28.08;;;10.10;99.90;;;;;;4993566;28;20053;-74
2023/11/23 02:40:59;;;;;;;32.88;30.40;;;10.10;99.90;;;;;;4991460;28;20054;-73
2023/11/23 02:43:25;;;;;;;33.83;30.90;;;10.10;99.90;;;;;;4999210;28;20034;-73
2023/11/23 02:45:54;;;;;;;34.15;31.35;;;10.10;99.90;;;;;;5003066;28;20043;-73
2023/11/23 02:48:20;;;;;;;30.65;27.98;;;10.10;99.90;;;;;;4976085;28;20049;-73
2023/11/23 02:50:47;;;;;;;33.20;30.23;;;10.10;99.90;;;;;;4990919;28;20027;-74
2023/11/23 02:53:27;;;;;;;37.75;34.83;;;10.10;99.90;;;;;;4990092;28;20102;-74
2023/11/23 02:55:54;;;;;;;38.10;35.07;;;10.10;99.90;;;;;;4991281;28;20034;-73
2023/11/23 02:58:21;;;;;;;41.40;38.22;;;10.10;99.90;;;;;;4993274;28;20476;-73
2023/11/23 03:00:48;;;;;;;49.35;45.90;;;10.10;99.90;;;;;;4990049;28;20031;-74
2023/11/23 03:03:14;;;;;;;47.35;44.05;;;10.00;99.90;;;;;;4990773;28;20037;-73
2023/11/23 03:05:41;;;;;;;45.58;42.08;;;10.10;99.90;;;;;;5001073;28;20030;-74
2023/11/23 03:08:07;;;;;;;39.58;36.38;;;10.10;99.90;;;;;;5001601;28;20031;-73
2023/11/23 03:10:36;;;;;;;42.72;39.05;;;10.10;99.90;;;;;;4991450;28;20038;-74
2023/11/23 03:13:02;;;;;;;46.25;42.45;;;10.10;99.90;;;;;;4982170;28;20038;-73
2023/11/23 03:15:29;;;;;;;37.38;34.72;;;10.10;99.90;;;;;;5006067;28;20053;-73
2023/11/23 03:17:55;;;;;;;36.00;32.92;;;10.10;99.90;;;;;;5003049;28;20399;-73
2023/11/23 03:20:21;;;;;;;36.92;33.83;;;10.10;99.90;;;;;;5001645;28;20033;-74
2023/11/23 03:22:47;;;;;;;34.97;32.15;;;10.10;99.90;;;;;;4996715;28;20049;-73
2023/11/23 03:25:13;;;;;;;33.08;30.33;;;10.20;99.90;;;;;;4991686;28;20061;-73
2023/11/23 03:27:40;;;;;;;35.28;32.28;;;10.20;99.90;;;;;;4991781;28;20034;-74
2023/11/23 03:30:06;;;;;;;33.47;30.85;;;10.20;99.90;;;;;;4992221;28;20035;-73
2023/11/23 03:32:32;;;;;;;31.17;28.58;;;10.20;99.90;;;;;;4991761;28;20038;-74
2023/11/23 03:34:59;;;;;;;32.35;29.75;;;10.20;99.90;;;;;;4995211;28;20042;-73
2023/11/23 03:37:25;;;;;;;35.60;32.83;;;10.30;99.90;;;;;;4990928;28;20498;-74
2023/11/23 03:39:52;;;;;;;33.28;30.45;;;10.30;99.90;;;;;;4984581;28;20027;-73
2023/11/23 03:42:18;;;;;;;35.63;32.45;;;10.30;99.90;;;;;;5002088;28;20041;-73
2023/11/23 03:44:45;;;;;;;36.05;32.45;;;10.30;99.90;;;;;;4986926;28;20043;-74
2023/11/23 03:47:11;;;;;;;38.53;34.95;;;10.30;99.90;;;;;;4995334;28;20403;-73
2023/11/23 03:49:37;;;;;;;36.03;32.65;;;10.30;99.90;;;;;;4991638;28;20053;-73
2023/11/23 03:52:03;;;;;;;37.33;34.33;;;10.20;99.90;;;;;;4974047;28;20418;-74
2023/11/23 03:54:29;;;;;;;35.00;32.00;;;10.20;99.90;;;;;;4992685;28;20042;-73
2023/11/23 03:56:55;;;;;;;40.40;36.72;;;10.30;99.90;;;;;;4989431;28;20046;-74
2023/11/23 03:59:21;;;;;;;39.80;36.13;;;10.30;99.90;;;;;;5006905;28;20034;-73
2023/11/23 04:01:47;;;;;;;37.80;34.47;;;10.30;99.90;;;;;;4990137;28;20415;-73
2023/11/23 04:04:14;;;;;;;37.10;34.03;;;10.20;99.90;;;;;;4998296;28;20042;-73
2023/11/23 04:06:40;;;;;;;43.20;39.33;;;10.20;99.90;;;;;;4991717;28;20045;-73
2023/11/23 04:09:08;;;;;;;41.80;38.60;;;10.10;99.90;;;;;;4992307;28;20033;-73
2023/11/23 04:11:34;;;;;;;42.40;38.70;;;10.10;99.90;;;;;;4990825;28;20511;-73
2023/11/23 04:14:00;;;;;;;39.83;36.17;;;10.20;99.90;;;;;;4989997;28;20034;-73
2023/11/23 04:16:26;;;;;;;41.38;38.08;;;10.30;99.90;;;;;;4991229;28;20058;-74
2023/11/23 04:18:52;;;;;;;41.40;37.78;;;10.30;99.90;;;;;;4992774;28;20031;-73
2023/11/23 04:21:19;;;;;;;41.15;37.55;;;10.30;99.90;;;;;;4988102;28;20054;-72
2023/11/23 04:23:45;;;;;;;41.13;37.75;;;10.30;99.90;;;;;;4992155;28;20038;-71
2023/11/23 04:26:11;;;;;;;44.22;40.65;;;10.30;99.90;;;;;;4992060;28;20053;-72
2023/11/23 04:28:38;;;;;;;37.88;34.88;;;10.40;99.90;;;;;;4990704;28;20475;-72
2023/11/23 04:31:05;;;;;;;37.22;33.97;;;10.40;99.90;;;;;;4990971;28;20042;-72
2023/11/23 04:33:31;;;;;;;35.80;32.78;;;10.40;99.90;;;;;;4990620;28;20863;-72
2023/11/23 04:35:58;;;;;;;35.08;31.67;;;10.40;99.90;;;;;;4987522;28;20034;-72
2023/11/23 04:38:24;;;;;;;40.65;36.60;;;10.40;99.90;;;;;;4989817;28;20046;-72
2023/11/23 04:40:50;;;;;;;34.47;30.60;;;10.30;99.90;;;;;;4991943;28;20050;-72
2023/11/23 04:43:16;;;;;;;40.53;34.95;;;10.30;99.90;;;;;;4991665;28;20034;-72
2023/11/23 04:45:43;;;;;;;33.83;30.40;;;10.30;99.90;;;;;;4988440;28;20054;-72
2023/11/23 04:48:09;;;;;;;33.50;30.30;;;10.30;99.90;;;;;;4992632;28;20034;-73
2023/11/23 04:50:39;;;;;;;37.63;34.10;;;10.40;99.90;;;;;;4993488;28;20061;-73
2023/11/23 04:53:05;;;;;;;33.20;29.88;;;10.40;99.90;;;;;;4992381;28;20095;-72
2023/11/23 04:55:32;;;;;;;37.17;30.83;;;10.40;99.90;;;;;;4991398;28;20487;-72
2023/11/23 04:57:58;;;;;;;38.22;34.38;;;10.50;99.90;;;;;;4993635;28;20058;-72
2023/11/23 05:00:26;;;;;;;34.92;31.58;;;10.40;99.90;;;;;;4990913;28;20043;-71
2023/11/23 05:02:53;;;;;;;31.73;28.98;;;10.40;99.90;;;;;;4991413;28;20030;-72
2023/11/23 05:05:20;;;;;;;30.83;28.20;;;10.40;99.90;;;;;;4991368;28;20061;-72
2023/11/23 05:07:46;;;;;;;31.10;28.13;;;10.50;99.90;;;;;;4983524;28;20034;-72
2023/11/23 05:10:12;;;;;;;36.25;33.03;;;10.50;99.90;;;;;;4990211;28;20027;-73
2023/11/23 05:12:39;;;;;;;31.38;28.38;;;10.40;99.90;;;;;;4992013;28;20042;-72
2023/11/23 05:15:05;;;;;;;33.03;29.83;;;10.40;99.90;;;;;;4994745;28;20026;-72
2023/11/23 05:17:31;;;;;;;32.85;29.77;;;10.50;99.90;;;;;;4993318;28;20034;-72
2023/11/23 05:19:58;;;;;;;327.75;50.35;;;10.50;99.90;;;;;;4995539;28;20030;-72
2023/11/23 05:22:24;;;;;;;70.45;34.60;;;10.50;99.90;;;;;;5005416;28;20037;-73
2023/11/23 05:24:50;;;;;;;32.55;29.27;;;10.50;99.90;;;;;;5005138;28;20505;-72
2023/11/23 05:27:16;;;;;;;32.58;29.67;;;10.50;99.90;;;;;;4995418;28;20391;-74
2023/11/23 05:29:42;;;;;;;33.95;30.73;;;10.50;99.90;;;;;;4995587;28;20041;-72
2023/11/23 05:32:09;;;;;;;131.25;35.50;;;10.50;99.90;;;;;;4993462;28;20515;-73
2023/11/23 05:34:35;;;;;;;45.88;29.98;;;10.50;99.90;;;;;;4992793;28;20027;-73
2023/11/23 05:37:01;;;;;;;28.63;25.83;;;10.50;99.90;;;;;;4990675;28;20395;-73
2023/11/23 05:39:27;;;;;;;48.15;28.15;;;10.50;99.90;;;;;;4983887;28;20030;-73
2023/11/23 05:41:53;;;;;;;47.97;29.60;;;10.50;99.90;;;;;;4988097;28;20364;-73
2023/11/23 05:44:19;;;;;;;32.13;29.13;;;10.60;99.90;;;;;;4995592;28;20481;-73
2023/11/23 05:46:47;;;;;;;33.42;30.08;;;10.60;99.90;;;;;;4994397;28;20503;-73
2023/11/23 05:49:13;;;;;;;1147.38;106.00;;;10.60;99.90;;;;;;4995563;28;20065;-73
2023/11/23 05:51:39;;;;;;;817.38;89.57;;;10.60;99.90;;;;;;4994613;28;20054;-73
2023/11/23 05:54:05;;;;;;;29.10;26.40;;;10.60;99.90;;;;;;5007793;28;20134;-74
2023/11/23 05:56:31;;;;;;;30.08;26.92;;;10.60;99.90;;;;;;5012930;28;20398;-73
2023/11/23 05:58:57;;;;;;;31.05;28.35;;;10.60;99.90;;;;;;5013730;28;20037;-73
2023/11/23 06:01:23;;;;;;;30.75;27.83;;;10.70;99.90;;;;;;5012475;28;20041;-73
2023/11/23 06:03:50;;;;;;;120.72;33.85;;;10.60;99.90;;;;;;5002583;28;20034;-75
2023/11/23 06:06:22;;;;;;;1213.57;109.22;;;10.60;99.90;;;;;;4994034;28;20031;-73
2023/11/23 06:08:49;;;;;;;36.80;33.33;;;10.60;99.90;;;;;;4974443;28;20492;-73
2023/11/23 06:11:16;;;;;;;37.97;34.67;;;10.60;99.90;;;;;;4984373;28;20026;-73
2023/11/23 06:13:47;;;;;;;36.45;32.88;;;10.60;99.90;;;;;;5005087;28;20034;-73
2023/11/23 06:16:14;;;;;;;38.42;34.72;;;10.60;99.90;;;;;;5012122;28;20034;-73
2023/11/23 06:18:41;;;;;;;37.97;34.53;;;10.60;99.90;;;;;;5012559;28;20038;-73
2023/11/23 06:21:08;;;;;;;39.13;35.15;;;10.60;99.90;;;;;;5012686;28;20034;-73
2023/11/23 06:23:34;;;;;;;38.15;34.53;;;10.60;99.90;;;;;;5005089;28;20406;-74
2023/11/23 06:26:00;;;;;;;35.00;31.52;;;10.60;99.90;;;;;;4991721;28;20042;-73
2023/11/23 06:28:26;;;;;;;38.72;35.17;;;10.70;99.90;;;;;;4994485;28;20034;-73
2023/11/23 06:30:52;;;;;;;36.65;33.22;;;10.70;99.90;;;;;;4993831;28;20046;-73
2023/11/23 06:33:18;;;;;;;38.90;35.40;;;10.70;99.90;;;;;;4999666;28;20042;-73
2023/11/23 06:35:44;;;;;;;38.65;34.03;;;10.70;99.90;;;;;;5013280;28;20383;-73
2023/11/23 06:38:11;;;;;;;39.25;35.00;;;10.70;99.90;;;;;;5012730;28;20042;-73
2023/11/23 06:40:37;;;;;;;37.40;33.92;;;10.70;99.90;;;;;;5012256;28;20030;-73
2023/11/23 06:43:05;;;;;;;34.92;31.92;;;10.70;99.90;;;;;;5008304;28;20068;-72
2023/11/23 06:45:31;;;;;;;37.67;34.33;;;10.80;99.90;;;;;;5012807;28;20061;-73
2023/11/23 06:47:57;;;;;;;34.45;31.48;;;10.70;99.90;;;;;;4995543;28;20041;-74
2023/11/23 06:50:23;;;;;;;35.47;32.45;;;10.70;99.90;;;;;;5013203;28;20037;-73
2023/11/23 06:52:49;;;;;;;37.78;34.15;;;10.70;99.90;;;;;;5012423;28;20050;-73
2023/11/23 06:55:16;;;;;;;86.93;36.65;;;10.80;99.90;;;;;;4993461;28;20029;-74
2023/11/23 06:57:46;;;;;;;158.38;40.28;;;10.80;99.90;;;;;;4993776;28;20042;-72
2023/11/23 07:00:22;;;;;;;89.00;35.80;;;10.70;99.90;;;;;;4993832;28;20383;-71
2023/11/23 07:02:52;;;;;;;35.90;32.70;;;10.80;99.90;;;;;;4977241;28;20042;-72
2023/11/23 07:05:19;;;;;;;34.58;31.35;;;10.80;99.90;;;;;;4993731;28;20023;-72
2023/11/23 07:07:47;;;;;;;33.90;31.00;;;10.70;99.90;;;;;;4994162;28;20046;-71
2023/11/23 07:10:14;;;;;;;37.47;34.17;;;10.80;99.90;;;;;;4993866;28;20046;-72
2023/11/23 07:12:41;;;;;;;38.28;35.13;;;10.80;99.90;;;;;;4993596;28;20042;-72
2023/11/23 07:15:09;;;;;;;36.28;33.17;;;10.80;99.90;;;;;;4993078;28;20034;-72
2023/11/23 07:17:36;;;;;;;39.50;34.13;;;10.80;99.90;;;;;;4991996;28;20043;-73
2023/11/23 07:20:05;;;;;;;38.55;35.22;;;10.80;99.90;;;;;;4992972;28;20029;-72
2023/11/23 07:22:33;;;;;;;36.42;33.47;;;10.80;99.90;;;;;;4993557;28;20535;-73
2023/11/23 07:25:00;;;;;;;36.15;32.95;;;10.80;99.90;;;;;;5004683;28;20068;-72
2023/11/23 07:27:26;;;;;;;36.97;34.17;;;10.90;99.90;;;;;;5012604;28;20041;-72
2023/11/23 07:29:53;;;;;;;37.35;34.08;;;10.80;99.90;;;;;;5013092;28;20052;-72
2023/11/23 07:32:22;;;;;;;35.50;32.40;;;10.90;99.90;;;;;;5011997;28;20057;-73
2023/11/23 07:34:48;;;;;;;656.30;69.53;;;10.90;99.90;;;;;;4994038;28;20049;-73
2023/11/23 07:37:14;;;;;;;40.78;37.03;;;10.90;99.90;;;;;;4992769;28;20038;-73
2023/11/23 07:39:41;;;;;;;44.22;40.40;;;11.00;99.90;;;;;;4991066;28;20030;-73
2023/11/23 07:42:07;;;;;;;37.42;34.25;;;11.00;99.90;;;;;;4993177;28;20030;-73
2023/11/23 07:44:33;;;;;;;40.78;37.42;;;11.00;99.90;;;;;;4993418;28;20042;-72
2023/11/23 07:46:59;;;;;;;41.05;37.28;;;11.00;99.90;;;;;;4983908;28;20050;-73
2023/11/23 07:49:26;;;;;;;45.17;40.33;;;11.00;99.90;;;;;;4985998;28;20026;-72
2023/11/23 07:51:55;;;;;;;41.63;38.00;;;11.00;99.90;;;;;;4990417;28;20045;-72
2023/11/23 07:54:21;;;;;;;54.75;40.97;;;11.00;99.90;;;;;;4980399;28;20046;-73
2023/11/23 07:56:47;;;;;;;48.35;44.28;;;11.00;99.90;;;;;;4973509;28;20038;-72
2023/11/23 07:59:13;;;;;;;58.22;54.00;;;11.10;99.90;;;;;;4989612;28;20519;-73
2023/11/23 08:01:39;;;;;;;54.50;50.15;;;11.10;99.90;;;;;;4989488;28;20041;-73
2023/11/23 08:04:05;;;;;;;52.92;48.45;;;11.10;99.90;;;;;;4977330;28;20479;-72
2023/11/23 08:06:32;;;;;;;58.63;53.88;;;11.10;99.90;;;;;;4984717;28;20025;-72
2023/11/23 08:08:58;;;;;;;61.55;55.88;;;11.10;99.90;;;;;;4993423;28;20127;-73
2023/11/23 08:11:24;;;;;;;84.30;46.53;;;11.10;99.90;;;;;;4992675;28;20392;-72
2023/11/23 08:13:50;;;;;;;51.55;46.67;;;11.10;99.90;;;;;;4989774;28;20057;-72
2023/11/23 08:16:17;;;;;;;46.88;42.85;;;11.10;99.90;;;;;;4991733;28;20035;-72
2023/11/23 08:18:45;;;;;;;50.33;46.10;;;11.10;99.90;;;;;;4991430;28;20026;-72
2023/11/23 08:21:11;;;;;;;47.47;43.75;;;11.20;99.90;;;;;;4992472;28;20038;-72
2023/11/23 08:23:37;;;;;;;52.33;48.33;;;11.20;99.90;;;;;;4992448;28;20483;-72
2023/11/23 08:26:05;;;;;;;62.75;57.10;;;11.20;99.90;;;;;;4991160;28;20046;-72
2023/11/23 08:28:31;;;;;;;64.32;58.42;;;11.20;99.90;;;;;;4987522;28;20046;-72
2023/11/23 08:30:57;;;;;;;52.35;47.72;;;11.10;99.90;;;;;;4977338;28;20412;-72
2023/11/23 08:33:23;;;;;;;333.00;67.32;;;11.20;99.90;;;;;;4990572;28;20380;-72
2023/11/23 08:35:53;;;;;;;58.22;53.50;;;11.20;99.90;;;;;;4991443;28;20041;-72
2023/11/23 08:38:19;;;;;;;53.53;49.25;;;11.20;99.90;;;;;;4992340;28;20094;-72
2023/11/23 08:40:46;;;;;;;50.20;45.80;;;11.20;99.90;;;;;;4992010;28;20045;-72
2023/11/23 08:43:12;;;;;;;45.03;41.08;;;11.30;99.90;;;;;;4990961;28;20046;-73
2023/11/23 08:45:38;;;;;;;35.67;32.78;;;11.30;99.90;;;;;;4989490;28;20053;-69
2023/11/23 08:48:05;;;;;;;43.30;39.90;;;11.30;99.90;;;;;;4989282;28;20061;-73
2023/11/23 08:50:31;;;;;;;51.75;40.60;;;11.30;99.90;;;;;;4995829;28;20041;-72
2023/11/23 08:52:59;;;;;;;47.92;44.00;;;11.30;99.90;;;;;;4996168;28;20045;-73
2023/11/23 08:55:25;;;;;;;40.55;37.08;;;11.30;99.90;;;;;;4991672;28;20027;-72
2023/11/23 08:57:51;;;;;;;38.70;35.10;;;11.20;99.90;;;;;;4981601;28;20046;-72
2023/11/23 09:00:23;;;;;;;36.40;32.83;;;11.30;99.90;;;;;;4987800;28;20045;-72
2023/11/23 09:02:53;;;;;;;37.97;34.58;;;11.30;99.90;;;;;;4995510;28;20065;-72
2023/11/23 09:05:21;;;;;;;41.17;37.53;;;11.30;99.90;;;;;;4979449;28;20475;-73
2023/11/23 09:07:48;;;;;;;39.70;36.55;;;11.40;99.90;;;;;;4994372;28;20049;-72
2023/11/23 09:10:16;;;;;;;39.67;36.20;;;11.40;99.90;;;;;;4979083;28;20065;-73
2023/11/23 09:12:42;;;;;;;38.67;35.58;;;11.50;99.90;;;;;;4993584;28;20530;-70
2023/11/23 09:15:09;;;;;;;37.78;34.58;;;11.50;99.90;;;;;;4993859;28;20037;-67
2023/11/23 09:17:36;;;;;;;36.80;33.83;;;11.50;99.90;;;;;;5001765;28;20043;-67
2023/11/23 09:20:05;;;;;;;41.17;37.70;;;11.60;99.90;;;;;;4998249;28;20391;-68
2023/11/23 09:22:33;;;;;;;39.80;36.75;;;11.60;99.90;;;;;;5012605;28;20042;-68
2023/11/23 09:25:00;;;;;;;40.60;37.35;;;11.70;99.90;;;;;;5015067;28;20510;-68
2023/11/23 09:27:26;;;;;;;39.15;35.72;;;11.80;99.90;;;;;;5014031;28;20065;-67
2023/11/23 09:29:54;;;;;;;46.25;42.85;;;11.70;99.90;;;;;;5011980;28;20042;-68
2023/11/23 09:32:20;;;;;;;39.88;36.55;;;11.70;99.90;;;;;;5014197;28;20042;-67
2023/11/23 09:34:46;;;;;;;39.75;36.47;;;11.70;99.90;;;;;;5004355;28;20045;-68
2023/11/23 09:37:12;;;;;;;54.95;51.15;;;11.80;99.90;;;;;;4995084;28;20052;-68
2023/11/23 09:39:38;;;;;;;47.90;44.30;;;11.90;99.90;;;;;;4995455;28;20057;-68
2023/11/23 09:42:05;;;;;;;36.95;33.85;;;11.90;99.90;;;;;;5008286;28;20030;-68
2023/11/23 09:44:31;;;;;;;37.08;34.25;;;11.90;99.90;;;;;;4996523;28;20402;-68
2023/11/23 09:46:57;;;;;;;38.00;35.08;;;12.00;99.90;;;;;;5012348;28;20045;-68
2023/11/23 09:49:24;;;;;;;42.05;38.85;;;12.00;99.90;;;;;;5008706;28;20042;-68
2023/11/23 09:51:55;;;;;;;40.28;37.28;;;12.10;99.90;;;;;;5011835;28;20046;-68
2023/11/23 09:54:21;;;;;;;37.45;34.40;;;12.10;99.90;;;;;;5012841;28;20053;-68
2023/11/23 09:56:48;;;;;;;37.50;34.40;;;12.10;99.90;;;;;;5011907;28;20044;-68
2023/11/23 09:59:14;;;;;;;40.20;37.00;;;12.20;99.90;;;;;;5011888;28;20471;-68
2023/11/23 10:01:47;;;;;;;36.55;33.63;;;12.20;99.90;;;;;;4994956;28;20048;-68
2023/11/23 10:04:13;;;;;;;37.55;34.50;;;12.20;99.90;;;;;;4994490;28;20046;-68
2023/11/23 10:06:40;;;;;;;37.53;34.33;;;12.20;99.90;;;;;;4995289;28;20037;-68
2023/11/23 10:09:09;;;;;;;35.38;32.55;;;12.20;99.90;;;;;;4994159;28;20030;-68
2023/11/23 10:11:36;;;;;;;34.35;31.50;;;12.30;99.90;;;;;;4994128;28;20498;-68
2023/11/23 10:14:04;;;;;;;34.78;32.13;;;12.30;99.90;;;;;;4992841;28;20046;-68
2023/11/23 10:16:31;;;;;;;35.83;32.95;;;12.30;99.90;;;;;;4995150;28;20030;-68
2023/11/23 10:18:57;;;;;;;38.30;35.30;;;12.40;99.90;;;;;;4995804;28;20514;-69
2023/11/23 10:21:24;;;;;;;43.65;40.67;;;12.40;99.90;;;;;;5013524;28;20034;-68
2023/11/23 10:23:50;;;;;;;38.47;35.72;;;12.50;99.90;;;;;;5014107;28;20052;-68
2023/11/23 10:26:16;;;;;;;41.60;38.88;;;12.60;99.90;;;;;;5008633;28;20415;-72
2023/11/23 10:28:42;;;;;;;38.05;35.20;;;12.60;99.90;;;;;;4995534;28;20030;-72
2023/11/23 10:31:09;;;;;;;34.95;32.25;;;12.70;99.90;;;;;;5011259;28;20041;-73
2023/11/23 10:33:36;;;;;;;34.33;31.42;;;12.70;99.90;;;;;;5009919;28;20045;-72
2023/11/23 10:36:04;;;;;;;41.05;37.63;;;12.70;99.90;;;;;;4992156;28;20022;-72
2023/11/23 10:38:40;;;;;;;39.58;36.70;;;12.90;99.90;;;;;;4992151;28;20026;-73
2023/11/23 10:41:07;;;;;;;49.67;46.55;;;13.00;99.90;;;;;;4991924;28;20047;-72
2023/11/23 10:43:36;;;;;;;51.60;48.28;;;13.10;99.90;;;;;;5004067;28;20034;-73
2023/11/23 10:46:07;;;;;;;38.50;35.95;;;13.10;99.90;;;;;;4997176;28;20419;-73
2023/11/23 10:48:34;;;;;;;37.58;35.08;;;13.20;99.90;;;;;;4992919;28;20034;-73
2023/11/23 10:51:06;;;;;;;44.15;41.20;;;13.30;99.90;;;;;;4976347;28;20045;-72
2023/11/23 10:53:32;;;;;;;54.00;50.63;;;13.30;99.90;;;;;;4992664;28;20042;-72
2023/11/23 10:56:04;;;;;;;54.40;51.22;;;13.30;99.90;;;;;;4993268;28;20042;-72
2023/11/23 10:58:33;;;;;;;53.72;50.58;;;13.30;99.90;;;;;;4996778;28;20057;-72
2023/11/23 11:00:59;;;;;;;46.22;43.10;;;13.30;99.90;;;;;;4992446;28;20031;-74
2023/11/23 11:03:25;;;;;;;39.20;36.75;;;13.30;99.90;;;;;;4985782;28;20030;-72
2023/11/23 11:05:53;;;;;;;45.47;42.42;;;13.30;99.90;;;;;;4976560;28;20034;-72
2023/11/23 11:08:20;;;;;;;43.92;41.15;;;13.40;99.90;;;;;;4981670;28;20031;-73
2023/11/23 11:10:48;;;;;;;39.35;36.65;;;13.40;99.90;;;;;;4984539;28;20042;-72
2023/11/23 11:13:18;;;;;;;44.53;41.53;;;13.30;99.90;;;;;;4992578;28;20042;-72
2023/11/23 11:16:03;;;;;;;44.13;41.47;;;13.20;99.90;;;;;;4991426;28;20038;-72
2023/11/23 11:18:29;;;;;;;42.35;39.90;;;13.20;99.90;;;;;;4993611;28;20110;-73
2023/11/23 11:21:08;;;;;;;50.97;48.08;;;13.10;99.90;;;;;;4998741;28;20383;-72
2023/11/23 11:23:38;;;;;;;41.53;38.83;;;13.10;99.90;;;;;;5011619;28;20501;-72
2023/11/23 11:26:11;;;;;;;34.45;32.40;;;13.00;99.90;;;;;;5011978;28;20490;-72
2023/11/23 11:28:38;;;;;;;40.60;38.20;;;12.80;99.90;;;;;;5011109;28;20029;-72
2023/11/23 11:31:06;;;;;;;49.85;46.85;;;12.80;99.90;;;;;;4983716;28;20042;-72
2023/11/23 11:33:32;;;;;;;37.17;34.55;;;12.80;99.90;;;;;;4991609;28;20043;-72
2023/11/23 11:36:01;;;;;;;39.17;36.92;;;12.80;99.90;;;;;;4991165;28;20050;-72
2023/11/23 11:38:28;;;;;;;46.78;44.22;;;12.80;99.90;;;;;;4993080;28;20043;-72
2023/11/23 11:40:54;;;;;;;33.72;31.35;;;12.80;99.90;;;;;;4998950;28;20034;-72
2023/11/23 11:43:21;;;;;;;31.05;29.25;;;12.70;99.90;;;;;;5005585;28;20041;-72
2023/11/23 11:45:47;;;;;;;36.47;34.13;;;12.70;99.90;;;;;;4990725;28;20054;-71
2023/11/23 11:48:13;;;;;;;52.40;48.65;;;12.70;99.90;;;;;;4992704;28;20034;-72
2023/11/23 11:50:39;;;;;;;34.90;32.85;;;12.60;99.90;;;;;;4992039;28;20041;-72
2023/11/23 11:53:07;;;;;;;36.80;34.63;;;12.60;99.90;;;;;;4991166;28;20061;-72
2023/11/23 11:55:33;;;;;;;132.23;120.97;;;12.60;99.90;;;;;;4991809;28;20030;-72
2023/11/23 11:57:59;;;;;;;40.53;37.80;;;12.60;99.90;;;;;;4992302;28;20356;-72
2023/11/23 12:00:25;;;;;;;39.28;36.88;;;12.60;99.90;;;;;;4989829;28;20038;-72
2023/11/23 12:02:52;;;;;;;36.47;34.35;;;12.70;99.90;;;;;;4991083;28;20501;-72
2023/11/23 12:05:20;;;;;;;34.70;32.58;;;12.90;99.90;;;;;;4974950;28;20054;-72
2023/11/23 12:07:53;;;;;;;40.50;38.20;;;13.10;99.90;;;;;;4989562;28;20030;-72
2023/11/23 12:10:19;;;;;;;49.53;46.92;;;13.20;99.90;;;;;;4972912;28;20062;-68
2023/11/23 12:12:47;;;;;;;45.30;42.80;;;13.20;99.90;;;;;;4992645;28;20518;-68
2023/11/23 12:15:17;;;;;;;32.97;31.00;;;13.30;99.90;;;;;;4991019;28;20057;-69
2023/11/23 12:17:50;;;;;;;38.08;35.78;;;13.20;99.90;;;;;;4992289;28;20022;-68
2023/11/23 12:20:16;;;;;;;38.17;35.85;;;13.20;99.90;;;;;;4992436;28;20471;-68
2023/11/23 12:22:44;;;;;;;42.65;39.85;;;13.30;99.90;;;;;;4992970;28;20479;-68
2023/11/23 12:25:10;;;;;;;36.05;33.90;;;13.40;99.90;;;;;;5006785;28;20057;-68
2023/11/23 12:27:37;;;;;;;35.90;33.60;;;13.40;99.90;;;;;;5014638;28;20030;-68